createdAt,value
2022-12-18T00:01:34.175Z,-6.20
2022-12-18T00:04:06.605Z,-6.30
2022-12-18T00:06:36.409Z,-6.30
2022-12-18T00:09:04.103Z,-6.20
2022-12-18T00:11:31.968Z,-6.30
2022-12-18T00:14:00.098Z,-6.40
2022-12-18T00:16:28.569Z,-6.40
2022-12-18T00:18:57.408Z,-6.20
2022-12-18T00:21:24.279Z,-6.30
2022-12-18T00:23:51.792Z,-6.20
2022-12-18T00:26:24.692Z,-6.20
2022-12-18T00:28:52.665Z,-6.30
2022-12-18T00:31:24.613Z,-6.30
2022-12-18T00:33:54.055Z,-6.30
2022-12-18T00:36:25.444Z,-6.40
2022-12-18T00:38:54.006Z,-6.30
2022-12-18T00:41:39.651Z,-6.40
2022-12-18T00:44:08.261Z,-6.30
2022-12-18T00:46:35.081Z,-6.10
2022-12-18T00:49:02.173Z,-6.20
2022-12-18T00:51:29.017Z,-6.30
2022-12-18T00:53:56.024Z,-6.30
2022-12-18T00:56:23.606Z,-6.30
2022-12-18T00:58:50.655Z,-6.30
2022-12-18T01:01:18.021Z,-6.40
2022-12-18T01:03:46.230Z,-6.40
2022-12-18T01:06:14.912Z,-6.50
2022-12-18T01:08:41.763Z,-6.50
2022-12-18T01:11:14.560Z,-6.50
2022-12-18T01:13:42.585Z,-6.50
2022-12-18T01:16:12.124Z,-6.50
2022-12-18T01:18:38.990Z,-6.50
2022-12-18T01:21:14.513Z,-6.50
2022-12-18T01:23:41.711Z,-6.60
2022-12-18T01:26:12.505Z,-6.50
2022-12-18T01:28:39.695Z,-6.50
2022-12-18T01:31:22.839Z,-6.50
2022-12-18T01:33:50.839Z,-6.40
2022-12-18T01:36:28.429Z,-6.50
2022-12-18T01:38:56.626Z,-6.50
2022-12-18T01:41:26.440Z,-6.50
2022-12-18T01:43:55.352Z,-6.40
2022-12-18T01:46:27.583Z,-6.40
2022-12-18T01:49:01.418Z,-6.40
2022-12-18T01:51:31.837Z,-6.30
2022-12-18T01:54:00.106Z,-6.40
2022-12-18T01:56:26.940Z,-6.40
2022-12-18T01:59:03.300Z,-6.40
2022-12-18T02:01:31.872Z,-6.50
2022-12-18T02:04:26.311Z,-6.50
2022-12-18T02:07:39.501Z,-6.50
2022-12-18T02:10:23.151Z,-6.50
2022-12-18T02:13:14.665Z,-6.40
2022-12-18T02:16:14.000Z,-6.40
2022-12-18T02:18:48.674Z,-6.40
2022-12-18T02:21:45.671Z,-6.40
2022-12-18T02:24:31.179Z,-6.40
2022-12-18T02:27:01.868Z,-6.50
2022-12-18T02:29:35.359Z,-6.30
2022-12-18T02:32:05.468Z,-6.30
2022-12-18T02:34:36.121Z,-6.30
2022-12-18T02:37:07.245Z,-6.30
2022-12-18T02:39:36.225Z,-6.40
2022-12-18T02:42:08.661Z,-6.40
2022-12-18T02:44:45.487Z,-6.40
2022-12-18T02:47:14.419Z,-6.40
2022-12-18T02:50:20.174Z,-6.40
2022-12-18T02:52:58.905Z,-6.40
2022-12-18T02:55:51.129Z,-6.30
2022-12-18T02:58:29.801Z,-6.20
2022-12-18T03:01:25.795Z,-6.20
2022-12-18T03:04:00.509Z,-6.30
2022-12-18T03:06:41.669Z,-6.30
2022-12-18T03:09:18.658Z,-6.40
2022-12-18T03:12:08.197Z,-6.50
2022-12-18T03:14:37.503Z,-6.40
2022-12-18T03:17:09.921Z,-6.50
2022-12-18T03:19:36.808Z,-6.50
2022-12-18T03:22:05.665Z,-6.40
2022-12-18T03:24:34.245Z,-6.50
2022-12-18T03:27:10.101Z,-6.60
2022-12-18T03:29:53.107Z,-6.50
2022-12-18T03:32:30.164Z,-6.50
2022-12-18T03:35:00.555Z,-6.50
2022-12-18T03:37:27.452Z,-6.60
2022-12-18T03:39:54.250Z,-6.60
2022-12-18T03:42:50.887Z,-6.60
2022-12-18T03:45:20.436Z,-6.70
2022-12-18T03:48:12.028Z,-6.60
2022-12-18T03:50:55.984Z,-6.60
2022-12-18T03:53:44.171Z,-6.70
2022-12-18T03:56:13.131Z,-6.60
2022-12-18T03:58:42.682Z,-6.70
2022-12-18T04:01:13.529Z,-6.70
2022-12-18T04:03:42.000Z,-6.80
2022-12-18T04:06:09.822Z,-6.80
2022-12-18T04:08:36.806Z,-6.70
2022-12-18T04:11:04.214Z,-6.70
2022-12-18T04:13:39.529Z,-6.70
2022-12-18T04:16:06.758Z,-6.70
2022-12-18T04:18:33.531Z,-6.70
2022-12-18T04:21:00.298Z,-6.80
2022-12-18T04:23:27.137Z,-6.80
2022-12-18T04:25:53.879Z,-6.90
2022-12-18T04:28:20.965Z,-6.80
2022-12-18T04:30:51.480Z,-6.80
2022-12-18T04:33:18.460Z,-6.80
2022-12-18T04:35:46.596Z,-6.90
2022-12-18T04:38:13.864Z,-6.90
2022-12-18T04:40:41.684Z,-6.80
2022-12-18T04:43:08.630Z,-6.80
2022-12-18T04:45:35.712Z,-6.90
2022-12-18T04:48:03.381Z,-6.80
2022-12-18T04:50:30.612Z,-6.90
2022-12-18T04:52:57.371Z,-6.80
2022-12-18T04:55:27.485Z,-6.80
2022-12-18T04:57:54.533Z,-6.90
2022-12-18T05:00:22.251Z,-6.90
2022-12-18T05:02:49.181Z,-6.90
2022-12-18T05:05:16.028Z,-7.00
2022-12-18T05:07:42.776Z,-7.00
2022-12-18T05:10:10.368Z,-6.90
2022-12-18T05:12:57.179Z,-6.90
2022-12-18T05:15:23.996Z,-7.00
2022-12-18T05:17:50.736Z,-6.90
2022-12-18T05:20:19.116Z,-6.90
2022-12-18T05:22:46.046Z,-6.90
2022-12-18T05:25:12.816Z,-6.90
2022-12-18T05:27:39.569Z,-6.80
2022-12-18T05:30:06.844Z,-6.80
2022-12-18T05:32:33.565Z,-6.70
2022-12-18T05:35:00.324Z,-6.70
2022-12-18T05:37:27.061Z,-6.70
2022-12-18T05:39:53.801Z,-6.60
2022-12-18T05:42:20.569Z,-6.70
2022-12-18T05:44:47.254Z,-6.70
2022-12-18T05:47:14.055Z,-6.70
2022-12-18T05:49:40.794Z,-6.70
2022-12-18T05:52:07.530Z,-6.70
2022-12-18T05:54:34.389Z,-6.70
2022-12-18T05:57:01.128Z,-6.70
2022-12-18T05:59:27.835Z,-6.70
2022-12-18T06:01:54.617Z,-6.70
2022-12-18T06:04:21.431Z,-6.80
2022-12-18T06:06:48.151Z,-6.80
2022-12-18T06:09:14.957Z,-6.80
2022-12-18T06:11:41.739Z,-6.80
2022-12-18T06:14:10.648Z,-6.90
2022-12-18T06:16:37.466Z,-6.90
2022-12-18T06:19:06.167Z,-6.80
2022-12-18T06:21:33.399Z,-6.80
2022-12-18T06:24:01.070Z,-6.80
2022-12-18T06:26:28.492Z,-6.80
2022-12-18T06:28:55.638Z,-6.80
2022-12-18T06:31:22.433Z,-6.70
2022-12-18T06:33:49.295Z,-6.70
2022-12-18T06:36:16.900Z,-6.60
2022-12-18T06:38:45.021Z,-6.50
2022-12-18T06:41:20.126Z,-6.50
2022-12-18T06:43:47.062Z,-6.60
2022-12-18T06:46:14.271Z,-6.50
2022-12-18T06:48:41.195Z,-6.50
2022-12-18T06:51:07.954Z,-6.40
2022-12-18T06:53:34.820Z,-6.40
2022-12-18T06:56:09.264Z,-6.40
2022-12-18T06:58:37.192Z,-6.50
2022-12-18T07:01:06.561Z,-6.50
2022-12-18T07:03:33.324Z,-6.50
2022-12-18T07:06:00.209Z,-6.40
2022-12-18T07:08:27.205Z,-6.50
2022-12-18T07:10:56.429Z,-6.30
2022-12-18T07:13:23.795Z,-6.30
2022-12-18T07:15:50.743Z,-6.30
2022-12-18T07:18:17.495Z,-6.30
2022-12-18T07:20:45.151Z,-6.30
2022-12-18T07:23:12.747Z,-6.30
2022-12-18T07:25:40.419Z,-6.20
2022-12-18T07:28:07.175Z,-6.20
2022-12-18T07:30:34.382Z,-6.20
2022-12-18T07:33:01.251Z,-6.20
2022-12-18T07:35:27.948Z,-6.10
2022-12-18T07:37:54.709Z,-6.20
2022-12-18T07:40:21.491Z,-6.20
2022-12-18T07:42:48.236Z,-6.20
2022-12-18T07:45:15.061Z,-6.20
2022-12-18T07:47:42.278Z,-6.10
2022-12-18T07:50:09.340Z,-6.10
2022-12-18T07:52:36.113Z,-6.10
2022-12-18T07:55:03.184Z,-6.00
2022-12-18T08:00:17.302Z,-5.90
2022-12-18T08:02:44.157Z,-5.90
2022-12-18T08:05:11.060Z,-5.90
2022-12-18T08:07:37.822Z,-5.90
2022-12-18T08:10:04.870Z,-5.70
2022-12-18T08:12:33.064Z,-5.60
2022-12-18T08:14:59.846Z,-5.60
2022-12-18T08:17:26.610Z,-5.50
2022-12-18T08:19:53.302Z,-5.50
2022-12-18T08:22:20.137Z,-5.30
2022-12-18T08:24:46.857Z,-5.20
2022-12-18T08:27:28.854Z,-5.20
2022-12-18T08:29:56.436Z,-5.10
2022-12-18T08:32:23.230Z,-5.00
2022-12-18T08:34:49.928Z,-5.00
2022-12-18T08:37:16.695Z,-4.90
2022-12-18T08:39:43.372Z,-4.90
2022-12-18T08:42:29.972Z,-4.80
2022-12-18T08:44:56.723Z,-4.70
2022-12-18T08:47:23.582Z,-4.60
2022-12-18T08:49:50.403Z,-4.60
2022-12-18T08:52:17.154Z,-4.50
2022-12-18T08:54:44.002Z,-4.40
2022-12-18T08:57:10.734Z,-4.30
2022-12-18T08:59:37.435Z,-4.10
2022-12-18T09:02:04.316Z,-4.00
2022-12-18T09:04:31.276Z,-4.00
2022-12-18T09:06:57.993Z,-4.00
2022-12-18T09:09:24.770Z,-3.90
2022-12-18T09:11:51.538Z,-3.80
2022-12-18T09:14:18.265Z,-3.80
2022-12-18T09:16:45.088Z,-3.80
2022-12-18T09:19:11.917Z,-3.70
2022-12-18T09:21:43.351Z,-3.70
2022-12-18T09:24:14.731Z,-3.50
2022-12-18T09:26:41.553Z,-3.60
2022-12-18T09:29:10.369Z,-3.60
2022-12-18T09:31:37.680Z,-3.60
2022-12-18T09:34:07.680Z,-3.40
2022-12-18T09:36:34.524Z,-3.30
2022-12-18T09:39:05.129Z,-3.30
2022-12-18T09:41:45.544Z,-2.90
2022-12-18T09:44:18.134Z,-2.80
2022-12-18T09:46:53.503Z,-2.70
2022-12-18T09:49:24.729Z,-2.90
2022-12-18T09:52:12.446Z,-2.90
2022-12-18T09:55:01.308Z,-2.80
2022-12-18T09:57:32.010Z,-2.90
2022-12-18T10:00:22.435Z,-2.90
2022-12-18T10:02:51.914Z,-2.90
2022-12-18T10:05:43.065Z,-2.70
2022-12-18T10:08:40.147Z,-2.70
2022-12-18T10:11:41.329Z,-2.80
2022-12-18T10:14:42.459Z,-2.70
2022-12-18T10:17:28.525Z,-2.60
2022-12-18T10:20:13.378Z,-2.70
2022-12-18T10:22:52.161Z,-2.60
2022-12-18T10:25:24.663Z,-2.60
2022-12-18T10:27:58.740Z,-2.60
2022-12-18T10:30:26.813Z,-2.50
2022-12-18T10:32:53.680Z,-2.50
2022-12-18T10:35:26.278Z,-2.40
2022-12-18T10:38:05.066Z,-2.40
2022-12-18T10:40:32.282Z,-2.30
2022-12-18T10:43:16.002Z,-2.30
2022-12-18T10:45:43.360Z,-2.10
2022-12-18T10:48:23.466Z,-2.00
2022-12-18T10:53:43.648Z,-2.30
2022-12-18T10:56:10.945Z,-2.10
2022-12-18T10:58:39.678Z,-2.20
2022-12-18T11:01:15.365Z,-2.20
2022-12-18T11:03:45.562Z,-2.20
2022-12-18T11:06:16.882Z,-2.00
2022-12-18T11:08:57.491Z,-2.00
2022-12-18T11:11:25.449Z,-2.10
2022-12-18T11:14:02.429Z,-2.10
2022-12-18T11:16:32.020Z,-2.00
2022-12-18T11:19:20.332Z,-1.90
2022-12-18T11:21:48.050Z,-2.00
2022-12-18T11:24:32.261Z,-1.90
2022-12-18T11:27:02.584Z,-2.00
2022-12-18T11:29:41.959Z,-2.00
2022-12-18T11:32:16.381Z,-2.00
2022-12-18T11:34:49.041Z,-1.90
2022-12-18T11:37:20.360Z,-1.80
2022-12-18T11:39:53.141Z,-1.90
2022-12-18T11:42:34.387Z,-2.00
2022-12-18T11:45:04.857Z,-2.00
2022-12-18T11:47:48.710Z,-1.90
2022-12-18T11:50:51.837Z,-2.00
2022-12-18T11:53:19.896Z,-1.90
2022-12-18T11:56:01.675Z,-1.70
2022-12-18T11:58:48.881Z,-1.70
2022-12-18T12:01:45.683Z,-1.70
2022-12-18T12:04:13.448Z,-2.00
2022-12-18T12:07:00.053Z,-2.00
2022-12-18T12:09:46.521Z,-2.00
2022-12-18T12:12:31.910Z,-2.00
2022-12-18T12:15:20.928Z,-2.00
2022-12-18T12:18:16.492Z,-1.90
2022-12-18T12:20:50.553Z,-1.90
2022-12-18T12:23:35.854Z,-2.00
2022-12-18T12:26:10.991Z,-2.00
2022-12-18T12:29:20.825Z,-2.00
2022-12-18T12:32:04.105Z,-1.90
2022-12-18T12:34:33.585Z,-1.80
2022-12-18T12:37:28.254Z,-1.90
2022-12-18T12:39:56.138Z,-2.00
2022-12-18T12:43:09.127Z,-1.90
2022-12-18T12:45:59.530Z,-1.90
2022-12-18T12:48:49.774Z,-1.90
2022-12-18T12:51:29.038Z,-1.80
2022-12-18T12:53:58.305Z,-1.80
2022-12-18T12:56:45.832Z,-1.90
2022-12-18T12:59:23.669Z,-1.90
2022-12-18T13:01:54.184Z,-1.80
2022-12-18T13:04:48.342Z,-1.90
2022-12-18T13:07:34.760Z,-1.80
2022-12-18T13:10:23.781Z,-1.70
2022-12-18T13:13:23.723Z,-1.70
2022-12-18T13:16:07.448Z,-1.60
2022-12-18T13:18:34.925Z,-1.70
2022-12-18T13:21:03.711Z,-1.70
2022-12-18T13:23:32.744Z,-1.70
2022-12-18T13:26:28.116Z,-1.60
2022-12-18T13:28:57.897Z,-1.60
2022-12-18T13:31:31.090Z,-1.50
2022-12-18T13:34:27.610Z,-1.50
2022-12-18T13:36:56.511Z,-1.70
2022-12-18T13:39:34.796Z,-1.70
2022-12-18T13:42:06.015Z,-1.70
2022-12-18T13:44:41.435Z,-1.70
2022-12-18T13:47:38.940Z,-1.60
2022-12-18T13:50:33.953Z,-1.60
2022-12-18T13:53:05.873Z,-1.70
2022-12-18T13:55:33.441Z,-1.70
2022-12-18T13:58:07.318Z,-1.70
2022-12-18T14:00:34.406Z,-1.70
2022-12-18T14:03:01.598Z,-1.80
2022-12-18T14:05:36.969Z,-1.70
2022-12-18T14:08:16.171Z,-1.90
2022-12-18T14:10:50.200Z,-1.90
2022-12-18T14:13:25.342Z,-1.90
2022-12-18T14:15:53.255Z,-1.80
2022-12-18T14:18:26.124Z,-1.90
2022-12-18T14:20:55.985Z,-1.90
2022-12-18T14:23:39.648Z,-1.90
2022-12-18T14:26:22.155Z,-1.90
2022-12-18T14:28:49.492Z,-1.90
2022-12-18T14:31:25.662Z,-1.90
2022-12-18T14:33:53.287Z,-2.00
2022-12-18T14:36:30.347Z,-2.00
2022-12-18T14:38:58.950Z,-1.90
2022-12-18T14:41:27.040Z,-1.90
2022-12-18T14:43:55.551Z,-2.00
2022-12-18T14:46:46.767Z,-2.00
2022-12-18T14:49:28.461Z,-2.00
2022-12-18T14:52:03.710Z,-2.10
2022-12-18T14:54:32.413Z,-2.20
2022-12-18T14:57:07.008Z,-2.20
2022-12-18T14:59:33.988Z,-2.10
2022-12-18T15:02:22.962Z,-2.20
2022-12-18T15:05:02.025Z,-2.10
2022-12-18T15:07:40.271Z,-2.20
2022-12-18T15:10:19.180Z,-2.20
2022-12-18T15:12:49.849Z,-2.20
2022-12-18T15:15:35.072Z,-2.20
2022-12-18T15:18:13.746Z,-2.20
2022-12-18T15:20:52.735Z,-2.20
2022-12-18T15:23:24.225Z,-2.30
2022-12-18T15:26:12.782Z,-2.20
2022-12-18T15:28:46.559Z,-2.30
2022-12-18T15:31:13.328Z,-2.30
2022-12-18T15:33:47.013Z,-2.20
2022-12-18T15:36:19.334Z,-2.20
2022-12-18T15:38:55.191Z,-2.30
2022-12-18T15:41:25.011Z,-2.30
2022-12-18T15:43:53.688Z,-2.20
2022-12-18T15:46:25.906Z,-2.30
2022-12-18T15:48:59.749Z,-2.20
2022-12-18T15:51:33.032Z,-2.30
2022-12-18T15:54:02.852Z,-2.30
2022-12-18T15:56:48.100Z,-2.30
2022-12-18T15:59:19.997Z,-2.30
2022-12-18T16:01:49.988Z,-2.30
2022-12-18T16:04:21.451Z,-2.30
2022-12-18T16:07:14.023Z,-2.30
2022-12-18T16:09:36.535Z,-2.20
2022-12-18T16:12:03.467Z,-2.20
2022-12-18T16:14:31.719Z,-2.20
2022-12-18T16:17:04.440Z,-2.20
2022-12-18T16:19:31.622Z,-2.30
2022-12-18T16:21:59.244Z,-2.30
2022-12-18T16:24:28.482Z,-2.30
2022-12-18T16:26:56.896Z,-2.30
2022-12-18T16:29:28.705Z,-2.30
2022-12-18T16:32:00.277Z,-2.30
2022-12-18T16:34:35.299Z,-2.40
2022-12-18T16:37:06.444Z,-2.30
2022-12-18T16:39:35.367Z,-2.40
2022-12-18T16:42:15.587Z,-2.40
2022-12-18T16:44:42.876Z,-2.40
2022-12-18T16:47:11.099Z,-2.40
2022-12-18T16:49:41.192Z,-2.40
2022-12-18T16:52:08.223Z,-2.40
2022-12-18T16:54:36.603Z,-2.50
2022-12-18T16:57:05.300Z,-2.40
2022-12-18T16:59:35.395Z,-2.40
2022-12-18T17:02:06.844Z,-2.40
2022-12-18T17:04:34.206Z,-2.50
2022-12-18T17:07:00.970Z,-2.50
2022-12-18T17:09:27.758Z,-2.50
2022-12-18T17:11:55.133Z,-2.50
2022-12-18T17:14:27.089Z,-2.50
2022-12-18T17:17:19.748Z,-2.50
2022-12-18T17:19:42.279Z,-2.50
2022-12-18T17:22:09.461Z,-2.30
2022-12-18T17:24:36.368Z,-2.40
2022-12-18T17:27:04.447Z,-2.50
2022-12-18T17:29:31.439Z,-2.50
2022-12-18T17:31:58.716Z,-2.50
2022-12-18T17:34:27.814Z,-2.50
2022-12-18T17:36:55.131Z,-2.40
2022-12-18T17:39:22.056Z,-2.50
2022-12-18T17:41:49.712Z,-2.50
2022-12-18T17:44:17.000Z,-2.40
2022-12-18T17:46:44.633Z,-2.50
2022-12-18T17:49:11.908Z,-2.50
2022-12-18T17:51:38.908Z,-2.50
2022-12-18T17:54:05.853Z,-2.50
2022-12-18T17:56:33.079Z,-2.50
2022-12-18T17:59:00.194Z,-2.50
2022-12-18T18:01:27.499Z,-2.50
2022-12-18T18:04:00.180Z,-2.50
2022-12-18T18:06:27.588Z,-2.50
2022-12-18T18:08:54.740Z,-2.50
2022-12-18T18:11:41.888Z,-2.50
2022-12-18T18:14:18.035Z,-2.50
2022-12-18T18:16:50.372Z,-2.60
2022-12-18T18:19:20.140Z,-2.50
2022-12-18T18:21:49.702Z,-2.60
2022-12-18T18:24:20.018Z,-2.60
2022-12-18T18:26:47.285Z,-2.60
2022-12-18T18:29:17.415Z,-2.50
2022-12-18T18:31:44.455Z,-2.60
2022-12-18T18:34:16.693Z,-2.60
2022-12-18T18:36:43.872Z,-2.50
2022-12-18T18:39:10.656Z,-2.40
2022-12-18T18:41:37.641Z,-2.40
2022-12-18T18:44:04.825Z,-2.30
2022-12-18T18:46:31.652Z,-2.40
2022-12-18T18:48:58.530Z,-2.40
2022-12-18T18:51:27.795Z,-2.40
2022-12-18T18:53:58.369Z,-2.40
2022-12-18T18:59:16.913Z,-2.30
2022-12-18T19:01:44.208Z,-2.30
2022-12-18T19:04:11.151Z,-2.30
2022-12-18T19:06:38.050Z,-2.20
2022-12-18T19:09:06.601Z,-2.30
2022-12-18T19:11:52.136Z,-2.20
2022-12-18T19:14:18.997Z,-2.20
2022-12-18T19:16:45.945Z,-2.20
2022-12-18T19:19:13.299Z,-2.10
2022-12-18T19:21:40.808Z,-2.20
2022-12-18T19:24:07.915Z,-2.20
2022-12-18T19:26:37.534Z,-2.10
2022-12-18T19:29:06.659Z,-2.10
2022-12-18T19:31:36.399Z,-2.10
2022-12-18T19:34:06.820Z,-2.10
2022-12-18T19:36:35.837Z,-2.10
2022-12-18T19:39:11.251Z,-2.10
2022-12-18T19:41:38.453Z,-2.10
2022-12-18T19:44:08.054Z,-2.10
2022-12-18T19:46:38.283Z,-2.10
2022-12-18T19:49:09.895Z,-2.10
2022-12-18T19:51:36.898Z,-2.00
2022-12-18T19:54:03.757Z,-2.00
2022-12-18T19:56:33.606Z,-2.00
2022-12-18T19:59:00.858Z,-2.00
2022-12-18T20:01:29.700Z,-2.00
2022-12-18T20:03:58.329Z,-1.90
2022-12-18T20:06:33.326Z,-1.90
2022-12-18T20:09:03.317Z,-1.80
2022-12-18T20:11:31.109Z,-1.90
2022-12-18T20:14:01.870Z,-1.90
2022-12-18T20:16:29.061Z,-1.90
2022-12-18T20:18:56.528Z,-1.90
2022-12-18T20:21:23.794Z,-1.90
2022-12-18T20:23:50.999Z,-1.80
2022-12-18T20:26:17.791Z,-1.80
2022-12-18T20:28:44.617Z,-1.80
2022-12-18T20:31:13.803Z,-1.80
2022-12-18T20:33:42.011Z,-1.70
2022-12-18T20:36:16.402Z,-1.70
2022-12-18T20:38:48.370Z,-1.70
2022-12-18T20:41:19.316Z,-1.70
2022-12-18T20:43:46.463Z,-1.60
2022-12-18T20:46:16.330Z,-1.60
2022-12-18T20:48:44.779Z,-1.50
2022-12-18T20:51:14.872Z,-1.50
2022-12-18T20:53:42.576Z,-1.50
2022-12-18T20:56:21.829Z,-1.50
2022-12-18T20:58:50.407Z,-1.50
2022-12-18T21:01:21.152Z,-1.40
2022-12-18T21:03:48.926Z,-1.40
2022-12-18T21:06:18.213Z,-1.40
2022-12-18T21:08:45.365Z,-1.40
2022-12-18T21:11:35.643Z,-1.30
2022-12-18T21:14:08.775Z,-1.40
2022-12-18T21:16:35.892Z,-1.30
2022-12-18T21:19:02.764Z,-1.30
2022-12-18T21:21:29.820Z,-1.30
2022-12-18T21:24:01.212Z,-1.30
2022-12-18T21:26:31.093Z,-1.20
2022-12-18T21:29:01.269Z,-1.30
2022-12-18T21:31:31.825Z,-1.30
2022-12-18T21:34:02.426Z,-1.20
2022-12-18T21:36:30.232Z,-1.20
2022-12-18T21:38:58.324Z,-1.20
2022-12-18T21:41:45.720Z,-1.20
2022-12-18T21:44:15.100Z,-1.20
2022-12-18T21:46:44.196Z,-1.20
2022-12-18T21:49:14.402Z,-1.00
2022-12-18T21:51:41.586Z,-1.10
2022-12-18T21:54:08.561Z,-1.20
2022-12-18T21:56:48.783Z,-1.10
2022-12-18T21:59:18.226Z,-1.20
2022-12-18T22:01:45.625Z,-1.10
2022-12-18T22:04:13.075Z,-1.10
2022-12-18T22:06:42.369Z,-1.10
2022-12-18T22:09:10.917Z,-1.10
2022-12-18T22:11:37.718Z,-1.00
2022-12-18T22:14:04.813Z,-1.10
2022-12-18T22:16:31.577Z,-1.10
2022-12-18T22:18:58.608Z,-1.10
2022-12-18T22:21:31.105Z,-1.10
2022-12-18T22:24:10.685Z,-1.10
2022-12-18T22:26:40.163Z,-1.10
2022-12-18T22:29:26.865Z,-1.00
2022-12-18T22:31:53.623Z,-1.10
2022-12-18T22:34:23.018Z,-1.00
2022-12-18T22:36:50.731Z,-1.10
2022-12-18T22:39:20.613Z,-1.00
2022-12-18T22:41:48.175Z,-1.10
2022-12-18T22:44:15.720Z,-1.00
2022-12-18T22:47:06.536Z,-0.90
2022-12-18T22:49:35.362Z,-1.00
2022-12-18T22:52:04.175Z,-1.00
2022-12-18T22:54:31.550Z,-0.90
2022-12-18T22:56:58.543Z,-0.90
2022-12-18T22:59:25.429Z,-0.90
2022-12-18T23:01:56.896Z,-1.00
2022-12-18T23:04:36.183Z,-1.00
2022-12-18T23:07:05.725Z,-0.90
2022-12-18T23:09:33.339Z,-0.90
2022-12-18T23:12:00.119Z,-0.90
2022-12-18T23:14:27.874Z,-0.80
2022-12-18T23:16:54.773Z,-0.70
2022-12-18T23:19:22.677Z,-0.80
2022-12-18T23:21:50.412Z,-0.80
2022-12-18T23:24:17.232Z,-0.70
2022-12-18T23:26:44.135Z,-0.70
2022-12-18T23:29:10.939Z,-0.70
2022-12-18T23:31:39.283Z,-0.70
2022-12-18T23:34:07.152Z,-0.70
2022-12-18T23:36:38.430Z,-0.70
2022-12-18T23:39:27.549Z,-0.70
2022-12-18T23:41:58.041Z,-0.60
2022-12-18T23:44:25.209Z,-0.60
2022-12-18T23:46:51.982Z,-0.60
2022-12-18T23:49:18.928Z,-0.50
2022-12-18T23:51:45.714Z,-0.50
2022-12-18T23:54:12.400Z,-0.50
2022-12-18T23:56:39.200Z,-0.40
2022-12-18T23:59:05.968Z,-0.40
